createdAt,value
2017-01-06T00:00:48.222Z,88.8
2017-01-06T00:01:48.203Z,89.27
2017-01-06T00:02:48.184Z,89.46
2017-01-06T00:03:48.166Z,88.89
2017-01-06T00:04:48.145Z,89.27
2017-01-06T00:05:48.126Z,89.74
2017-01-06T00:06:48.106Z,89.08
2017-01-06T00:07:48.089Z,89.08
2017-01-06T00:08:48.068Z,89.08
2017-01-06T00:09:48.049Z,89.27
2017-01-06T00:10:48.029Z,89.93
2017-01-06T00:11:48.012Z,89.93
2017-01-06T00:12:47.993Z,90.22
2017-01-06T00:13:47.972Z,90.41
2017-01-06T00:14:47.952Z,90.41
2017-01-06T00:15:48.317Z,91.35
2017-01-06T00:16:47.913Z,91.25
2017-01-06T00:17:47.897Z,91.06
2017-01-06T00:18:47.873Z,90.69
2017-01-06T00:19:47.854Z,91.16
2017-01-06T00:20:47.833Z,91.44
2017-01-06T00:21:47.817Z,91.35
2017-01-06T00:22:47.796Z,91.35
2017-01-06T00:23:47.776Z,91.35
2017-01-06T00:24:47.757Z,91.44
2017-01-06T00:25:47.739Z,90.69
2017-01-06T00:26:47.718Z,90.97
2017-01-06T00:27:47.698Z,91.25
2017-01-06T00:28:47.682Z,90.03
2017-01-06T00:29:47.661Z,90.88
2017-01-06T00:30:47.641Z,90.97
2017-01-06T00:31:47.621Z,91.53
2017-01-06T00:32:47.600Z,91.06
2017-01-06T00:33:47.582Z,91.44
2017-01-06T00:34:47.560Z,90.97
2017-01-06T00:35:47.543Z,90.69
2017-01-06T00:36:47.532Z,90.5
2017-01-06T00:37:47.503Z,91.35
2017-01-06T00:38:47.484Z,90.22
2017-01-06T00:39:47.465Z,90.03
2017-01-06T00:40:47.446Z,90.31
2017-01-06T00:41:47.426Z,90.03
2017-01-06T00:42:47.409Z,89.65
2017-01-06T00:43:47.388Z,89.18
2017-01-06T00:44:47.369Z,89.84
2017-01-06T00:45:47.349Z,90.12
2017-01-06T00:46:47.331Z,90.12
2017-01-06T00:47:47.311Z,89.93
2017-01-06T00:48:47.290Z,90.12
2017-01-06T00:49:47.271Z,90.69
2017-01-06T00:50:47.252Z,90.31
2017-01-06T00:51:47.233Z,90.31
2017-01-06T00:52:47.212Z,90.31
2017-01-06T00:53:47.194Z,90.41
2017-01-06T00:54:47.172Z,90.22
2017-01-06T00:55:47.157Z,90.31
2017-01-06T00:57:59.932Z,91.53
2017-01-06T00:58:59.911Z,91.44
2017-01-06T00:59:59.895Z,91.63
2017-01-06T01:00:59.875Z,91.63
2017-01-06T01:01:59.854Z,91.63
2017-01-06T01:02:59.833Z,91.44
2017-01-06T01:03:59.815Z,91.25
2017-01-06T01:04:59.796Z,91.35
2017-01-06T01:05:59.777Z,91.44
2017-01-06T01:06:59.756Z,91.35
2017-01-06T01:07:59.736Z,91.35
2017-01-06T01:08:59.717Z,90.03
2017-01-06T01:09:59.697Z,90.12
2017-01-06T01:10:59.679Z,90.22
2017-01-06T01:11:59.658Z,91.25
2017-01-06T01:12:59.639Z,91.53
2017-01-06T01:13:59.624Z,91.53
2017-01-06T01:14:59.600Z,90.97
2017-01-06T01:15:59.580Z,91.44
2017-01-06T01:16:59.559Z,91.53
2017-01-06T01:17:59.541Z,91.72
2017-01-06T01:18:59.524Z,91.53
2017-01-06T01:19:59.501Z,91.16
2017-01-06T01:20:59.480Z,91.53
2017-01-06T01:21:59.464Z,91.35
2017-01-06T01:22:59.444Z,91.44
2017-01-06T01:23:59.424Z,91.25
2017-01-06T01:24:59.404Z,91.53
2017-01-06T01:25:59.384Z,92.29
2017-01-06T01:26:59.366Z,91.72
2017-01-06T01:27:59.343Z,91.16
2017-01-06T01:28:59.326Z,91.72
2017-01-06T01:29:59.307Z,92
2017-01-06T01:30:59.286Z,91.53
2017-01-06T01:31:59.270Z,91.82
2017-01-06T01:32:59.246Z,91.72
2017-01-06T01:33:59.229Z,91.82
2017-01-06T01:34:59.208Z,91.91
2017-01-06T01:35:59.187Z,92.47
2017-01-06T01:36:59.172Z,92.66
2017-01-06T01:37:59.148Z,92.95
2017-01-06T01:38:59.130Z,92.57
2017-01-06T01:39:59.110Z,93.13
2017-01-06T01:40:59.090Z,93.13
2017-01-06T01:41:59.071Z,93.04
2017-01-06T01:42:59.054Z,93.04
2017-01-06T01:43:59.030Z,93.61
2017-01-06T01:44:59.014Z,93.42
2017-01-06T01:45:58.992Z,93.51
2017-01-06T01:46:58.973Z,93.23
2017-01-06T01:47:58.954Z,93.61
2017-01-06T01:48:58.960Z,93.7
2017-01-06T01:49:58.913Z,93.13
2017-01-06T01:50:58.903Z,93.61
2017-01-06T01:51:58.874Z,93.51
2017-01-06T01:52:58.857Z,93.89
2017-01-06T01:53:58.876Z,93.7
2017-01-06T01:54:58.815Z,93.8
2017-01-06T01:55:58.795Z,93.7
2017-01-06T01:56:58.777Z,93.8
2017-01-06T01:57:58.759Z,93.89
2017-01-06T01:58:58.737Z,93.8
2017-01-06T01:59:58.720Z,93.98
2017-01-06T02:00:58.703Z,93.51
2017-01-06T02:01:58.678Z,93.89
2017-01-06T02:02:58.658Z,93.8
2017-01-06T02:03:58.639Z,93.8
2017-01-06T02:04:58.618Z,93.7
2017-01-06T02:05:58.599Z,93.98
2017-01-06T02:06:58.579Z,93.42
2017-01-06T02:07:58.560Z,93.7
2017-01-06T02:08:58.539Z,93.51
2017-01-06T02:09:58.521Z,93.8
2017-01-06T02:10:58.501Z,94.27
2017-01-06T02:11:58.480Z,93.98
2017-01-06T02:12:58.463Z,93.89
2017-01-06T02:13:58.443Z,93.8
2017-01-06T02:14:58.425Z,93.98
2017-01-06T02:15:58.401Z,93.7
2017-01-06T02:16:58.383Z,93.61
2017-01-06T02:17:58.363Z,93.8
2017-01-06T02:18:58.342Z,93.7
2017-01-06T02:19:58.322Z,93.98
2017-01-06T02:20:58.305Z,93.61
2017-01-06T02:21:58.282Z,93.8
2017-01-06T02:22:58.263Z,93.8
2017-01-06T02:23:58.248Z,93.32
2017-01-06T02:24:58.225Z,93.8
2017-01-06T02:25:58.211Z,93.8
2017-01-06T02:26:58.184Z,93.61
2017-01-06T02:27:58.165Z,93.7
2017-01-06T02:28:58.145Z,93.7
2017-01-06T02:29:58.126Z,93.7
2017-01-06T02:30:58.106Z,93.7
2017-01-06T02:31:58.086Z,93.42
2017-01-06T02:32:58.065Z,93.42
2017-01-06T02:33:58.045Z,93.04
2017-01-06T02:34:58.027Z,93.32
2017-01-06T02:35:58.008Z,93.42
2017-01-06T02:36:57.984Z,93.23
2017-01-06T02:37:57.966Z,93.04
2017-01-06T02:38:57.946Z,93.32
2017-01-06T02:39:57.928Z,93.23
2017-01-06T02:40:57.912Z,92.85
2017-01-06T02:41:57.885Z,92.85
2017-01-06T02:42:57.867Z,92.85
2017-01-06T02:43:57.847Z,92.66
2017-01-06T02:44:57.825Z,92.85
2017-01-06T02:45:57.833Z,92.66
2017-01-06T02:46:57.786Z,92.76
2017-01-06T02:47:57.765Z,92.95
2017-01-06T02:48:57.747Z,93.04
2017-01-06T02:49:57.725Z,92.95
2017-01-06T02:50:57.708Z,93.23
2017-01-06T02:51:57.687Z,92.85
2017-01-06T02:52:57.667Z,92.85
2017-01-06T02:53:57.645Z,92.85
2017-01-06T02:54:57.628Z,92.57
2017-01-06T02:55:57.606Z,92.57
2017-01-06T02:56:57.589Z,92.85
2017-01-06T02:57:57.566Z,92.38
2017-01-06T02:58:57.545Z,92.29
2017-01-06T02:59:57.529Z,92.47
2017-01-06T03:00:57.506Z,92.66
2017-01-06T03:01:57.485Z,92.47
2017-01-06T03:02:57.466Z,92.66
2017-01-06T03:03:57.446Z,92.66
2017-01-06T03:04:57.425Z,92.19
2017-01-06T03:05:57.405Z,92.66
2017-01-06T03:06:57.386Z,92.19
2017-01-06T03:07:57.365Z,92.1
2017-01-06T03:08:57.346Z,92.38
2017-01-06T03:09:57.327Z,92.19
2017-01-06T03:10:57.306Z,92.66
2017-01-06T03:11:57.286Z,92.85
2017-01-06T03:12:57.265Z,92.76
2017-01-06T03:13:57.246Z,92.76
2017-01-06T03:14:57.228Z,92.76
2017-01-06T03:15:57.206Z,92.76
2017-01-06T03:16:57.184Z,92.76
2017-01-06T03:17:57.165Z,92.76
2017-01-06T03:18:57.146Z,92.95
2017-01-06T03:19:57.125Z,92.95
2017-01-06T03:20:57.108Z,92.76
2017-01-06T03:21:57.087Z,92.66
2017-01-06T03:22:57.066Z,92.66
2017-01-06T03:23:57.045Z,92.66
2017-01-06T03:24:57.026Z,92.19
2017-01-06T03:25:57.007Z,91.91
2017-01-06T03:26:56.986Z,91.72
2017-01-06T03:27:56.966Z,92.29
2017-01-06T03:28:56.945Z,92.38
2017-01-06T03:29:56.926Z,92.1
2017-01-06T03:30:56.904Z,92.1
2017-01-06T03:31:56.889Z,91.91
2017-01-06T03:32:56.866Z,91.63
2017-01-06T03:33:56.848Z,91.91
2017-01-06T03:34:56.824Z,92.1
2017-01-06T03:35:56.807Z,92.38
2017-01-06T03:36:56.787Z,92.66
2017-01-06T03:37:56.767Z,92.47
2017-01-06T03:38:56.745Z,92.29
2017-01-06T03:39:56.724Z,92.38
2017-01-06T03:40:56.704Z,92.38
2017-01-06T03:41:56.685Z,92.19
2017-01-06T03:42:56.664Z,92.1
2017-01-06T03:43:56.646Z,92.47
2017-01-06T03:44:56.627Z,92.47
2017-01-06T03:45:56.603Z,92.66
2017-01-06T03:46:56.584Z,92.95
2017-01-06T03:47:56.563Z,92.66
2017-01-06T03:48:56.545Z,92.85
2017-01-06T03:49:56.524Z,92.47
2017-01-06T03:50:56.503Z,92.66
2017-01-06T03:51:56.485Z,92.66
2017-01-06T03:52:56.463Z,92.66
2017-01-06T03:53:56.445Z,92.29
2017-01-06T03:54:56.424Z,92.66
2017-01-06T03:55:56.406Z,92.66
2017-01-06T03:56:56.383Z,92.85
2017-01-06T03:57:56.365Z,92.76
2017-01-06T03:58:56.344Z,92.85
2017-01-06T03:59:56.325Z,92.76
2017-01-06T04:00:56.305Z,92.66
2017-01-06T04:01:56.284Z,92.57
2017-01-06T04:02:56.264Z,92.29
2017-01-06T04:03:56.244Z,92.47
2017-01-06T04:04:56.223Z,92.29
2017-01-06T04:05:56.204Z,92.66
2017-01-06T04:06:56.215Z,92.29
2017-01-06T04:07:56.164Z,92.47
2017-01-06T04:08:56.144Z,92.47
2017-01-06T04:09:56.124Z,92.76
2017-01-06T04:10:56.106Z,92.1
2017-01-06T04:11:56.083Z,92.47
2017-01-06T04:12:56.064Z,92.66
2017-01-06T04:13:56.042Z,92.38
2017-01-06T04:14:56.025Z,92.38
2017-01-06T04:15:56.004Z,92.66
2017-01-06T04:16:55.983Z,92.66
2017-01-06T04:17:55.965Z,92.85
2017-01-06T04:18:55.942Z,92.47
2017-01-06T04:19:55.924Z,92.47
2017-01-06T04:20:55.903Z,92.76
2017-01-06T04:21:55.887Z,92.76
2017-01-06T04:22:55.862Z,92.47
2017-01-06T04:23:55.845Z,92.85
2017-01-06T04:24:55.822Z,92.95
2017-01-06T04:25:55.803Z,92.85
2017-01-06T04:26:55.782Z,92.85
2017-01-06T04:27:55.764Z,92.76
2017-01-06T04:28:55.743Z,93.32
2017-01-06T04:29:55.724Z,93.04
2017-01-06T04:30:55.704Z,93.23
2017-01-06T04:31:55.685Z,92.85
2017-01-06T04:32:55.665Z,93.04
2017-01-06T04:33:55.643Z,92.85
2017-01-06T04:34:55.623Z,92.85
2017-01-06T04:35:55.604Z,92.85
2017-01-06T04:36:55.583Z,93.23
2017-01-06T04:37:55.564Z,92.85
2017-01-06T04:38:55.543Z,92.66
2017-01-06T04:39:55.524Z,92.57
2017-01-06T04:40:55.503Z,92.66
2017-01-06T04:41:55.483Z,92.76
2017-01-06T04:42:55.466Z,92.38
2017-01-06T04:43:55.443Z,92.57
2017-01-06T04:44:55.422Z,92.47
2017-01-06T04:45:55.402Z,92.66
2017-01-06T04:46:55.383Z,93.04
2017-01-06T04:47:55.363Z,92.38
2017-01-06T04:48:55.342Z,92.66
2017-01-06T04:49:55.323Z,92.47
2017-01-06T04:50:55.302Z,92.29
2017-01-06T04:51:55.282Z,91.53
2017-01-06T04:52:55.264Z,91.25
2017-01-06T04:53:55.251Z,91.25
2017-01-06T04:54:55.225Z,91.35
2017-01-06T04:55:55.201Z,91.35
2017-01-06T04:56:55.183Z,91.53
2017-01-06T04:57:55.165Z,92.1
2017-01-06T04:58:55.142Z,91.91
2017-01-06T04:59:55.126Z,91.91
2017-01-06T05:00:55.106Z,92.29
2017-01-06T05:01:55.083Z,92.47
2017-01-06T05:02:55.063Z,92.66
2017-01-06T05:03:55.042Z,92.19
2017-01-06T05:04:55.023Z,92.66
2017-01-06T05:05:55.001Z,92.38
2017-01-06T05:06:54.982Z,92.66
2017-01-06T05:07:54.962Z,92.76
2017-01-06T05:08:54.944Z,92.85
2017-01-06T05:09:54.924Z,92.85
2017-01-06T05:10:54.903Z,92.66
2017-01-06T05:11:54.882Z,92.76
2017-01-06T05:12:54.863Z,92.76
2017-01-06T05:13:54.841Z,92.85
2017-01-06T05:14:54.821Z,92.85
2017-01-06T05:15:54.806Z,92.66
2017-01-06T05:16:54.782Z,92.85
2017-01-06T05:17:54.761Z,92.66
2017-01-06T05:18:54.742Z,92.66
2017-01-06T05:19:54.722Z,92
2017-01-06T05:20:54.701Z,92.1
2017-01-06T05:21:54.682Z,92.1
2017-01-06T05:22:54.662Z,92.38
2017-01-06T05:23:54.643Z,92.1
2017-01-06T05:24:54.623Z,92.47
2017-01-06T05:25:54.603Z,92.29
2017-01-06T05:26:54.582Z,92.66
2017-01-06T05:27:54.569Z,92.76
2017-01-06T05:28:54.544Z,93.32
2017-01-06T05:29:54.909Z,92.66
2017-01-06T05:30:54.503Z,93.04
2017-01-06T05:31:54.482Z,93.23
2017-01-06T05:32:54.463Z,93.23
2017-01-06T05:33:54.441Z,93.51
2017-01-06T05:34:54.423Z,93.23
2017-01-06T05:35:54.402Z,93.13
2017-01-06T05:36:54.384Z,92.85
2017-01-06T05:37:54.363Z,93.32
2017-01-06T05:38:54.342Z,93.42
2017-01-06T05:39:54.323Z,93.98
2017-01-06T05:40:54.303Z,93.89
2017-01-06T05:41:54.286Z,94.17
2017-01-06T05:42:54.264Z,93.89
2017-01-06T05:43:54.244Z,94.36
2017-01-06T05:44:54.225Z,94.17
2017-01-06T05:45:54.206Z,94.83
2017-01-06T05:46:54.186Z,94.93
2017-01-06T05:47:54.193Z,94.65
2017-01-06T05:48:54.145Z,94.83
2017-01-06T05:49:54.126Z,94.83
2017-01-06T05:50:54.135Z,94.83
2017-01-06T05:51:54.086Z,94.83
2017-01-06T05:52:54.068Z,95.02
2017-01-06T05:53:54.046Z,94.27
2017-01-06T05:54:54.027Z,94.27
2017-01-06T05:55:54.009Z,93.13
2017-01-06T05:56:53.989Z,93.13
2017-01-06T05:57:53.969Z,93.51
2017-01-06T05:58:53.950Z,93.61
2017-01-06T05:59:53.932Z,94.65
2017-01-06T06:00:53.911Z,93.98
2017-01-06T06:01:53.891Z,93.75
2017-01-06T06:02:53.872Z,93.47
2017-01-06T06:03:53.853Z,92.71
2017-01-06T06:04:53.833Z,93.09
2017-01-06T06:05:53.815Z,93.18
2017-01-06T06:06:53.795Z,93.09
2017-01-06T06:07:53.776Z,94.03
2017-01-06T06:08:53.757Z,93.84
2017-01-06T06:09:53.737Z,94.41
2017-01-06T06:10:53.719Z,94.69
2017-01-06T06:11:53.697Z,94.51
2017-01-06T06:12:53.678Z,94.88
2017-01-06T06:13:53.662Z,94.88
2017-01-06T06:14:53.642Z,94.98
2017-01-06T06:15:53.621Z,95.45
2017-01-06T06:16:53.601Z,94.79
2017-01-06T06:17:53.591Z,94.79
2017-01-06T06:18:53.564Z,94.69
2017-01-06T06:19:53.545Z,94.41
2017-01-06T06:20:53.528Z,94.22
2017-01-06T06:21:53.506Z,94.03
2017-01-06T06:22:53.487Z,94.41
2017-01-06T06:23:53.469Z,94.69
2017-01-06T06:24:53.448Z,94.98
2017-01-06T06:25:53.432Z,94.6
2017-01-06T06:26:53.414Z,95.07
2017-01-06T06:27:53.392Z,95.17
2017-01-06T06:28:53.371Z,95.17
2017-01-06T06:29:53.353Z,94.88
2017-01-06T06:30:53.337Z,94.98
2017-01-06T06:31:53.316Z,95.07
2017-01-06T06:32:53.297Z,94.88
2017-01-06T06:33:53.279Z,95.26
2017-01-06T06:34:53.258Z,94.88
2017-01-06T06:35:53.244Z,94.69
2017-01-06T06:36:53.220Z,94.6
2017-01-06T06:37:53.203Z,94.79
2017-01-06T06:38:53.572Z,94.98
2017-01-06T06:39:53.163Z,94.88
2017-01-06T06:40:53.143Z,94.98
2017-01-06T06:41:53.516Z,94.79
2017-01-06T06:42:53.106Z,94.98
2017-01-06T06:43:53.088Z,94.79
2017-01-06T06:44:53.067Z,94.98
2017-01-06T06:45:53.051Z,95.36
2017-01-06T06:46:53.029Z,94.6
2017-01-06T06:47:53.013Z,94.69
2017-01-06T06:48:52.994Z,95.07
2017-01-06T06:49:52.974Z,95.07
2017-01-06T06:50:52.957Z,95.54
2017-01-06T06:51:52.934Z,95.45
2017-01-06T06:52:52.915Z,95.73
2017-01-06T06:53:52.904Z,95.64
2017-01-06T06:54:52.878Z,96.3
2017-01-06T06:55:52.861Z,95.83
2017-01-06T06:56:52.840Z,96.11
2017-01-06T06:57:52.821Z,96.3
2017-01-06T06:58:52.802Z,96.2
2017-01-06T06:59:52.785Z,96.48
2017-01-06T07:00:52.764Z,96.67
2017-01-06T07:01:52.748Z,96.95
2017-01-06T07:02:52.734Z,96.39
2017-01-06T07:03:52.707Z,96.48
2017-01-06T07:04:52.690Z,96.48
2017-01-06T07:05:52.669Z,97.14
2017-01-06T07:06:52.651Z,97.05
2017-01-06T07:07:52.634Z,96.77
2017-01-06T07:08:52.614Z,96.77
2017-01-06T07:09:52.596Z,97.05
2017-01-06T07:10:52.574Z,96.11
2017-01-06T07:11:52.556Z,95.73
2017-01-06T07:12:52.536Z,96.11
2017-01-06T07:13:52.518Z,95.54
2017-01-06T07:14:52.497Z,95.64
2017-01-06T07:15:52.482Z,95.73
2017-01-06T07:16:52.463Z,96.3
2017-01-06T07:17:52.442Z,95.36
2017-01-06T07:18:52.426Z,95.54
2017-01-06T07:19:52.405Z,95.54
2017-01-06T07:20:52.387Z,95.45
2017-01-06T07:21:52.368Z,95.54
2017-01-06T07:22:52.349Z,95.73
2017-01-06T07:23:52.330Z,95.64
2017-01-06T07:24:52.311Z,95.26
2017-01-06T07:25:52.291Z,94.88
2017-01-06T07:26:52.273Z,94.6
2017-01-06T07:27:52.254Z,94.32
2017-01-06T07:28:52.236Z,93.56
2017-01-06T07:29:52.216Z,93.18
2017-01-06T07:30:52.198Z,93.09
2017-01-06T07:31:52.482Z,93.47
2017-01-06T07:32:52.161Z,93.94
2017-01-06T07:33:52.141Z,93.84
2017-01-06T07:34:52.124Z,93.94
2017-01-06T07:35:52.107Z,94.13
2017-01-06T07:36:52.083Z,94.22
2017-01-06T07:37:52.067Z,94.69
2017-01-06T07:38:52.048Z,95.26
2017-01-06T07:39:52.029Z,94.98
2017-01-06T07:40:52.039Z,95.17
2017-01-06T07:41:51.992Z,95.54
2017-01-06T07:42:51.973Z,95.83
2017-01-06T07:43:51.954Z,95.83
2017-01-06T07:44:51.938Z,95.64
2017-01-06T07:45:51.916Z,95.92
2017-01-06T07:46:51.898Z,96.11
2017-01-06T07:47:51.878Z,96.34
2017-01-06T07:48:51.861Z,96.34
2017-01-06T07:49:51.843Z,96.53
2017-01-06T07:50:51.822Z,96.15
2017-01-06T07:51:51.804Z,95.78
2017-01-06T07:52:51.789Z,95.5
2017-01-06T07:53:51.767Z,95.78
2017-01-06T07:54:51.752Z,96.25
2017-01-06T07:55:51.728Z,95.87
2017-01-06T07:56:51.718Z,96.06
2017-01-06T07:57:51.695Z,95.87
2017-01-06T07:58:51.674Z,95.59
2017-01-06T07:59:51.657Z,95.4
2017-01-06T08:00:51.638Z,95.21
2017-01-06T08:01:51.622Z,95.59
2017-01-06T08:02:51.601Z,95.4
2017-01-06T08:03:51.969Z,95.59
2017-01-06T08:04:51.566Z,95.59
2017-01-06T08:05:51.546Z,95.03
2017-01-06T08:06:51.527Z,94.74
2017-01-06T08:07:51.510Z,94.46
2017-01-06T08:08:51.490Z,94.65
2017-01-06T08:09:51.474Z,93.99
2017-01-06T08:10:51.460Z,94.46
2017-01-06T08:11:51.440Z,94.18
2017-01-06T08:12:51.419Z,93.89
2017-01-06T08:13:51.399Z,94.18
2017-01-06T08:14:51.379Z,94.55
2017-01-06T08:15:51.361Z,93.99
2017-01-06T08:16:51.342Z,93.32
2017-01-06T08:17:51.326Z,93.8
2017-01-06T08:18:51.309Z,93.89
2017-01-06T08:19:51.680Z,94.27
2017-01-06T08:20:51.269Z,94.84
2017-01-06T08:21:51.250Z,95.31
2017-01-06T08:22:51.239Z,95.12
2017-01-06T08:23:51.215Z,95.68
2017-01-06T08:24:51.195Z,95.87
2017-01-06T08:25:51.183Z,95.78
2017-01-06T08:26:51.159Z,95.87
2017-01-06T08:27:51.142Z,95.5
2017-01-06T08:28:51.122Z,95.97
2017-01-06T08:29:51.106Z,95.59
2017-01-06T08:30:51.087Z,94.08
2017-01-06T08:31:51.068Z,94.08
2017-01-06T08:32:51.051Z,93.8
2017-01-06T08:33:51.033Z,93.8
2017-01-06T08:34:51.013Z,93.23
2017-01-06T08:35:50.996Z,93.8
2017-01-06T08:36:50.977Z,94.18
2017-01-06T08:37:50.959Z,94.36
2017-01-06T08:38:50.941Z,93.99
2017-01-06T08:39:50.924Z,94.65
2017-01-06T08:40:50.911Z,94.65
2017-01-06T08:41:50.887Z,94.55
2017-01-06T08:42:50.868Z,94.93
2017-01-06T08:43:50.849Z,94.93
2017-01-06T08:44:50.832Z,95.12
2017-01-06T08:45:50.815Z,95.59
2017-01-06T08:46:50.798Z,95.5
2017-01-06T08:47:50.777Z,95.31
2017-01-06T08:48:50.761Z,95.59
2017-01-06T08:49:50.744Z,95.78
2017-01-06T08:50:50.724Z,95.97
2017-01-06T08:51:50.708Z,95.87
2017-01-06T08:52:50.688Z,95.97
2017-01-06T08:53:50.672Z,95.5
2017-01-06T08:54:50.656Z,95.68
2017-01-06T08:55:50.637Z,95.5
2017-01-06T08:56:50.618Z,95.31
2017-01-06T08:57:50.598Z,95.68
2017-01-06T08:58:50.990Z,95.87
2017-01-06T08:59:50.563Z,95.78
2017-01-06T09:00:50.545Z,95.78
2017-01-06T09:01:50.528Z,95.68
2017-01-06T09:02:50.511Z,95.5
2017-01-06T09:03:50.494Z,96.15
2017-01-06T09:04:50.474Z,96.06
2017-01-06T09:05:50.456Z,96.53
2017-01-06T09:06:50.440Z,96.44
2017-01-06T09:07:50.422Z,96.44
2017-01-06T09:08:50.404Z,96.58
2017-01-06T09:09:50.388Z,96.58
2017-01-06T09:10:50.370Z,97.43
2017-01-06T09:11:50.351Z,96.96
2017-01-06T09:12:50.336Z,97.72
2017-01-06T09:13:50.315Z,97.53
2017-01-06T09:14:50.301Z,97.81
2017-01-06T09:15:50.283Z,98.38
2017-01-06T09:16:50.264Z,98.75
2017-01-06T09:17:50.249Z,98.47
2017-01-06T09:18:50.230Z,98.19
2017-01-06T09:19:50.237Z,98.66
2017-01-06T09:20:50.197Z,98.47
2017-01-06T09:21:50.177Z,98.94
2017-01-06T09:22:50.161Z,98.52
2017-01-06T09:23:50.146Z,98.9
2017-01-06T09:24:50.128Z,98.61
2017-01-06T09:25:50.114Z,98.52
2017-01-06T09:26:50.097Z,98.24
2017-01-06T09:27:50.079Z,98.33
2017-01-06T09:28:50.064Z,98.24
2017-01-06T09:29:50.046Z,98.24
2017-01-06T09:30:50.028Z,97.96
2017-01-06T09:31:50.012Z,97.77
2017-01-06T09:32:50.381Z,98.43
2017-01-06T09:33:49.979Z,98.8
2017-01-06T09:34:49.961Z,97.86
2017-01-06T09:35:49.947Z,97.96
2017-01-06T09:36:49.931Z,98.24
2017-01-06T09:37:49.912Z,98.52
2017-01-06T09:38:49.897Z,98.52
2017-01-06T09:39:49.879Z,98.24
2017-01-06T09:40:49.866Z,99.08
2017-01-06T09:41:49.854Z,98.33
2017-01-06T09:42:49.830Z,98.52
2017-01-06T09:43:49.813Z,98.24
2017-01-06T09:44:49.802Z,98.33
2017-01-06T09:45:49.784Z,98.8
2017-01-06T09:46:49.768Z,97.48
2017-01-06T09:47:49.749Z,98.43
2017-01-06T09:48:49.735Z,98.14
2017-01-06T09:49:49.716Z,97.67
2017-01-06T09:50:49.701Z,98.14
2017-01-06T09:51:49.683Z,97.39
2017-01-06T09:52:49.669Z,97.39
2017-01-06T09:53:49.651Z,97.58
2017-01-06T09:54:49.638Z,97.01
2017-01-06T09:55:49.619Z,96.54
2017-01-06T09:56:49.602Z,96.35
2017-01-06T09:57:49.585Z,95.97
2017-01-06T09:58:49.569Z,95.97
2017-01-06T09:59:49.552Z,95.87
2017-01-06T10:00:49.534Z,95.87
2017-01-06T10:01:49.517Z,96.35
2017-01-06T10:02:49.505Z,96.25
2017-01-06T10:03:49.483Z,96.06
2017-01-06T10:04:49.770Z,95.87
2017-01-06T10:05:49.450Z,96.16
2017-01-06T10:06:49.434Z,96.44
2017-01-06T10:07:49.419Z,96.35
2017-01-06T10:08:49.403Z,96.25
2017-01-06T10:09:49.384Z,96.91
2017-01-06T10:10:49.368Z,97.1
2017-01-06T10:11:49.373Z,97.1
2017-01-06T10:12:49.331Z,96.91
2017-01-06T10:13:49.315Z,97.1
2017-01-06T10:14:49.301Z,97.29
2017-01-06T10:15:49.283Z,96.82
2017-01-06T10:16:49.266Z,97.58
2017-01-06T10:17:49.249Z,97.58
2017-01-06T10:18:49.233Z,97.77
2017-01-06T10:19:49.218Z,97.29
2017-01-06T10:20:49.201Z,97.96
2017-01-06T10:21:49.184Z,98.43
2017-01-06T10:22:49.168Z,98.61
2017-01-06T10:23:49.150Z,99.27
2017-01-06T10:24:49.134Z,99.18
2017-01-06T10:25:49.121Z,99.27
2017-01-06T10:26:49.109Z,99.61
2017-01-06T10:27:49.088Z,99.99
2017-01-06T10:28:49.071Z,99.99
2017-01-06T10:29:49.054Z,99.99
2017-01-06T10:30:49.037Z,99.99
2017-01-06T10:31:49.024Z,99.99
2017-01-06T10:32:49.006Z,99.99
2017-01-06T10:33:48.990Z,99.99
2017-01-06T10:34:48.978Z,99.99
2017-01-06T10:35:48.961Z,99.99
2017-01-06T10:36:48.945Z,99.99
2017-01-06T10:37:48.930Z,99.99
2017-01-06T10:38:48.914Z,99.99
2017-01-06T10:39:48.900Z,99.99
2017-01-06T10:40:48.885Z,99.99
2017-01-06T10:41:48.869Z,99.99
2017-01-06T10:42:48.854Z,99.57
2017-01-06T10:43:48.840Z,98.81
2017-01-06T10:44:48.825Z,98.05
2017-01-06T10:45:48.811Z,97.58
2017-01-06T10:46:48.793Z,98.05
2017-01-06T10:47:48.780Z,97.96
2017-01-06T10:48:48.765Z,96.64
2017-01-06T10:49:48.751Z,96.64
2017-01-06T10:50:48.738Z,94.74
2017-01-06T10:51:48.720Z,95.03
2017-01-06T10:52:48.706Z,95.31
2017-01-06T10:53:48.690Z,96.07
2017-01-06T10:54:48.676Z,94.56
2017-01-06T10:55:48.661Z,90.54
2017-01-06T10:56:48.645Z,92.24
2017-01-06T10:57:48.630Z,93.18
2017-01-06T10:58:48.616Z,94.6
2017-01-06T10:59:48.602Z,92.43
2017-01-06T11:00:48.584Z,89.69
2017-01-06T11:01:48.570Z,90.54
2017-01-06T11:02:48.554Z,91.67
2017-01-06T11:03:48.542Z,93.47
2017-01-06T11:04:48.524Z,94.22
2017-01-06T11:05:48.508Z,94.41
2017-01-06T11:06:48.496Z,95.45
2017-01-06T11:07:48.477Z,95.45
2017-01-06T11:08:48.464Z,96.35
2017-01-06T11:09:48.450Z,95.88
2017-01-06T11:10:48.435Z,96.64
2017-01-06T11:11:48.417Z,95.21
2017-01-06T11:12:48.423Z,94.18
2017-01-06T11:13:48.389Z,93.99
2017-01-06T11:14:48.373Z,95.03
2017-01-06T11:15:48.359Z,96.07
2017-01-06T11:16:48.344Z,93.7
2017-01-06T11:17:48.335Z,92.66
2017-01-06T11:18:48.314Z,90.96
2017-01-06T11:19:48.303Z,92.29
2017-01-06T11:20:48.285Z,91.05
2017-01-06T11:21:48.271Z,88.31
2017-01-06T11:22:48.253Z,89.07
2017-01-06T11:23:48.239Z,90.2
2017-01-06T11:24:48.225Z,90.58
2017-01-06T11:25:48.210Z,90.39
2017-01-06T11:26:48.194Z,90.86
2017-01-06T11:27:48.183Z,89.73
2017-01-06T11:28:48.164Z,89.64
2017-01-06T11:29:48.150Z,89.54
2017-01-06T11:30:48.139Z,85.47
2017-01-06T11:31:48.120Z,85.47
2017-01-06T11:32:48.105Z,84.72
2017-01-06T11:33:48.091Z,84.91
2017-01-06T11:34:48.078Z,84.96
2017-01-06T11:35:48.061Z,86.1
2017-01-06T11:36:48.044Z,87.98
2017-01-06T11:37:48.031Z,89.31
2017-01-06T11:38:48.017Z,90.35
2017-01-06T11:39:48.001Z,91.86
2017-01-06T11:40:47.984Z,93.13
2017-01-06T11:41:47.983Z,92.19
2017-01-06T11:42:47.954Z,91.24
2017-01-06T11:43:47.939Z,84.72
2017-01-06T11:44:47.926Z,84.3
2017-01-06T11:45:47.911Z,84.77
2017-01-06T11:46:47.895Z,86.94
2017-01-06T11:47:47.879Z,89.03
2017-01-06T11:48:47.865Z,88.65
2017-01-06T11:49:47.848Z,90.16
2017-01-06T11:50:47.834Z,90.44
2017-01-06T11:51:47.816Z,91.24
2017-01-06T11:52:47.804Z,89.54
2017-01-06T11:53:47.788Z,87.08
2017-01-06T11:54:47.771Z,85.05
2017-01-06T11:55:47.757Z,86.38
2017-01-06T11:56:47.742Z,87.04
2017-01-06T11:57:47.727Z,86.47
2017-01-06T11:58:47.710Z,86.38
2017-01-06T11:59:47.693Z,88.17
2017-01-06T12:00:47.681Z,87.51
2017-01-06T12:01:47.664Z,88.84
2017-01-06T12:02:47.647Z,87.13
2017-01-06T12:03:47.634Z,86.66
2017-01-06T12:04:47.619Z,87.7
2017-01-06T12:05:47.602Z,89.4
2017-01-06T12:06:47.589Z,88.74
2017-01-06T12:07:47.570Z,87.98
2017-01-06T12:08:47.556Z,88.93
2017-01-06T12:09:47.538Z,88.36
2017-01-06T12:10:47.525Z,87.23
2017-01-06T12:11:47.511Z,88.36
2017-01-06T12:12:47.494Z,90.06
2017-01-06T12:13:47.478Z,91.48
2017-01-06T12:14:47.465Z,92.71
2017-01-06T12:15:47.446Z,92.99
2017-01-06T12:16:47.433Z,94.08
2017-01-06T12:17:47.417Z,87.7
2017-01-06T12:18:47.399Z,87.7
2017-01-06T12:19:47.386Z,82.5
2017-01-06T12:20:47.370Z,80.43
2017-01-06T12:21:47.353Z,83.92
2017-01-06T12:22:47.338Z,86.66
2017-01-06T12:23:47.322Z,87.61
2017-01-06T12:24:47.308Z,87.61
2017-01-06T12:25:47.679Z,88.36
2017-01-06T12:26:47.666Z,88.65
2017-01-06T12:27:47.261Z,88.36
2017-01-06T12:28:47.245Z,84.39
2017-01-06T12:29:47.234Z,86.19
2017-01-06T12:30:47.216Z,87.98
2017-01-06T12:31:47.198Z,89.59
2017-01-06T12:32:47.185Z,90.82
2017-01-06T12:33:47.169Z,90.54
2017-01-06T12:34:47.153Z,90.44
2017-01-06T12:35:47.139Z,92.05
2017-01-06T12:36:47.122Z,92.38
2017-01-06T12:37:47.496Z,89.54
2017-01-06T12:38:47.478Z,89.73
2017-01-06T12:39:47.075Z,91.05
2017-01-06T12:40:47.062Z,92.1
2017-01-06T12:41:47.046Z,90.39
2017-01-06T12:42:47.032Z,90.3
2017-01-06T12:43:47.015Z,91.62
2017-01-06T12:44:47.000Z,92.76
2017-01-06T12:45:46.986Z,93.89
2017-01-06T12:46:46.969Z,94.46
2017-01-06T12:47:46.954Z,94.93
2017-01-06T12:48:46.938Z,95.21
2017-01-06T12:49:46.924Z,90.39
2017-01-06T12:50:46.908Z,86.71
2017-01-06T12:51:46.895Z,84.91
2017-01-06T12:52:46.878Z,85.19
2017-01-06T12:53:46.866Z,87.18
2017-01-06T12:54:46.849Z,89.07
2017-01-06T12:55:46.833Z,87.46
2017-01-06T12:56:46.820Z,84.81